createdAt,value
2018-04-02T00:01:19.187Z,5.29
2018-04-02T00:03:52.724Z,5.35
2018-04-02T00:06:26.157Z,5.38
2018-04-02T00:09:01.081Z,5.44
2018-04-02T00:11:35.277Z,5.45
2018-04-02T00:14:10.178Z,5.52
2018-04-02T00:16:43.875Z,5.53
2018-04-02T00:19:19.342Z,5.60
2018-04-02T00:21:53.286Z,5.68
2018-04-02T00:24:27.057Z,5.66
2018-04-02T00:27:00.851Z,5.51
2018-04-02T00:29:34.728Z,5.51
2018-04-02T00:32:08.297Z,5.55
2018-04-02T00:34:41.760Z,5.54
2018-04-02T00:37:15.649Z,5.44
2018-04-02T00:39:49.762Z,5.42
2018-04-02T00:42:24.181Z,5.53
2018-04-02T00:45:07.593Z,5.58
2018-04-02T00:47:42.378Z,5.66
2018-04-02T00:50:16.034Z,5.69
2018-04-02T00:52:50.403Z,5.63
2018-04-02T00:55:30.570Z,5.68
2018-04-02T00:58:04.583Z,5.68
2018-04-02T01:00:38.351Z,5.53
2018-04-02T01:03:12.063Z,5.56
2018-04-02T01:05:46.003Z,5.62
2018-04-02T01:08:19.771Z,5.57
2018-04-02T01:10:53.029Z,5.48
2018-04-02T01:13:27.068Z,5.18
2018-04-02T01:16:00.779Z,5.09
2018-04-02T01:18:34.566Z,5.01
2018-04-02T01:21:08.564Z,5.08
2018-04-02T01:23:42.406Z,5.18
2018-04-02T01:26:15.640Z,5.26
2018-04-02T01:28:51.129Z,5.17
2018-04-02T01:31:24.792Z,5.25
2018-04-02T01:33:58.286Z,5.37
2018-04-02T01:36:32.557Z,5.32
2018-04-02T01:39:06.788Z,5.36
2018-04-02T01:41:40.403Z,5.30
2018-04-02T01:44:14.166Z,5.33
2018-04-02T01:46:47.933Z,5.38
2018-04-02T01:49:22.016Z,5.38
2018-04-02T01:51:58.121Z,5.42
2018-04-02T01:54:31.732Z,5.38
2018-04-02T01:57:08.117Z,5.33
2018-04-02T01:59:44.282Z,5.18
2018-04-02T02:02:17.951Z,5.07
2018-04-02T02:04:53.606Z,4.76
2018-04-02T02:07:28.621Z,4.38
2018-04-02T02:10:02.976Z,4.06
2018-04-02T02:12:36.624Z,3.75
2018-04-02T02:15:10.615Z,3.50
2018-04-02T02:17:44.459Z,3.36
2018-04-02T02:20:18.517Z,3.19
2018-04-02T02:22:52.460Z,3.16
2018-04-02T02:25:27.318Z,3.05
2018-04-02T02:28:03.428Z,2.95
2018-04-02T02:30:37.174Z,2.86
2018-04-02T02:33:11.361Z,2.80
2018-04-02T02:35:44.631Z,2.72
2018-04-02T02:38:18.289Z,2.66
2018-04-02T02:40:52.429Z,2.58
2018-04-02T02:43:26.345Z,2.43
2018-04-02T02:46:01.396Z,2.42
2018-04-02T02:48:35.242Z,2.34
2018-04-02T02:51:09.729Z,2.35
2018-04-02T02:53:43.306Z,2.22
2018-04-02T02:56:17.074Z,2.23
2018-04-02T02:58:51.638Z,2.21
2018-04-02T03:01:25.244Z,2.16
2018-04-02T03:03:59.232Z,2.05
2018-04-02T03:06:32.454Z,1.99
2018-04-02T03:09:07.330Z,1.92
2018-04-02T03:11:40.826Z,1.88
2018-04-02T03:14:14.288Z,1.79
2018-04-02T03:16:47.892Z,1.78
2018-04-02T03:19:21.339Z,1.80
2018-04-02T03:21:54.666Z,1.74
2018-04-02T03:24:28.303Z,1.69
2018-04-02T03:27:01.915Z,1.64
2018-04-02T03:29:35.225Z,1.65
2018-04-02T03:32:08.870Z,1.59
2018-04-02T03:34:42.532Z,1.57
2018-04-02T03:37:16.434Z,1.55
2018-04-02T03:39:50.672Z,1.48
2018-04-02T03:42:24.186Z,1.42
2018-04-02T03:44:57.542Z,1.59
2018-04-02T03:47:31.070Z,1.39
2018-04-02T03:50:06.266Z,1.33
2018-04-02T03:52:39.611Z,1.36
2018-04-02T03:55:13.488Z,1.35
2018-04-02T03:57:46.849Z,1.47
2018-04-02T04:00:20.414Z,1.60
2018-04-02T04:02:54.116Z,1.81
2018-04-02T04:05:27.766Z,1.78
2018-04-02T04:08:01.352Z,2.00
2018-04-02T04:10:35.311Z,2.29
2018-04-02T04:13:09.001Z,2.49
2018-04-02T04:15:42.773Z,2.76
2018-04-02T04:18:16.395Z,2.76
2018-04-02T04:20:50.151Z,2.79
2018-04-02T04:23:24.033Z,2.95
2018-04-02T04:25:58.253Z,3.13
2018-04-02T04:28:31.668Z,3.05
2018-04-02T04:31:05.570Z,3.16
2018-04-02T04:33:39.206Z,3.20
2018-04-02T04:36:12.681Z,3.29
2018-04-02T04:38:46.309Z,3.39
2018-04-02T04:41:20.344Z,3.47
2018-04-02T04:43:53.780Z,3.36
2018-04-02T04:46:27.499Z,3.40
2018-04-02T04:49:01.283Z,3.34
2018-04-02T04:51:34.629Z,3.41
2018-04-02T04:54:08.612Z,3.51
2018-04-02T04:56:42.319Z,3.46
2018-04-02T04:59:15.876Z,3.50
2018-04-02T05:01:49.671Z,3.49
2018-04-02T05:04:23.179Z,3.55
2018-04-02T05:06:56.712Z,3.61
2018-04-02T05:09:30.612Z,3.66
2018-04-02T05:12:04.293Z,3.71
2018-04-02T05:14:37.642Z,3.74
2018-04-02T05:17:11.217Z,3.70
2018-04-02T05:19:44.646Z,3.73
2018-04-02T05:22:17.971Z,3.74
2018-04-02T05:24:51.680Z,3.78
2018-04-02T05:27:25.385Z,3.79
2018-04-02T05:29:59.264Z,3.83
2018-04-02T05:32:33.222Z,3.78
2018-04-02T05:35:06.616Z,3.75
2018-04-02T05:37:40.138Z,3.68
2018-04-02T05:40:13.867Z,3.82
2018-04-02T05:42:48.723Z,3.90
2018-04-02T05:45:22.442Z,4.08
2018-04-02T05:47:56.143Z,4.10
2018-04-02T05:50:29.916Z,4.17
2018-04-02T05:53:03.463Z,4.26
2018-04-02T05:55:37.052Z,4.30
2018-04-02T05:58:10.606Z,4.35
2018-04-02T06:00:44.425Z,4.44
2018-04-02T06:03:18.199Z,4.43
2018-04-02T06:05:52.290Z,4.57
2018-04-02T06:08:26.107Z,4.68
2018-04-02T06:10:59.714Z,4.59
2018-04-02T06:13:33.710Z,4.53
2018-04-02T06:16:07.973Z,4.60
2018-04-02T06:18:41.762Z,4.77
2018-04-02T06:21:17.471Z,4.83
2018-04-02T06:23:55.994Z,4.99
2018-04-02T06:26:30.848Z,5.02
2018-04-02T06:29:05.034Z,4.94
2018-04-02T06:31:44.948Z,5.02
2018-04-02T06:34:19.511Z,5.10
2018-04-02T06:36:54.427Z,4.93
2018-04-02T06:39:27.926Z,5.02
2018-04-02T06:42:01.858Z,5.06
2018-04-02T06:44:35.399Z,5.28
2018-04-02T06:47:11.250Z,5.07
2018-04-02T06:49:46.758Z,5.27
2018-04-02T06:52:21.287Z,5.38
2018-04-02T06:54:54.767Z,5.57
2018-04-02T06:57:34.015Z,5.59
2018-04-02T07:00:16.109Z,5.62
2018-04-02T07:02:50.485Z,5.77
2018-04-02T07:05:24.752Z,5.80
2018-04-02T07:08:02.016Z,5.99
2018-04-02T07:10:35.848Z,5.95
2018-04-02T07:13:09.301Z,6.06
2018-04-02T07:15:42.898Z,6.16
2018-04-02T07:18:19.004Z,6.37
2018-04-02T07:20:52.945Z,6.63
2018-04-02T07:23:27.378Z,6.72
2018-04-02T07:26:01.029Z,6.82
2018-04-02T07:28:34.672Z,6.98
2018-04-02T07:31:09.559Z,7.31
2018-04-02T07:33:43.262Z,7.29
2018-04-02T07:36:16.735Z,7.50
2018-04-02T07:38:50.901Z,7.45
2018-04-02T07:41:25.450Z,7.61
2018-04-02T07:43:59.428Z,7.60
2018-04-02T07:46:33.520Z,7.93
2018-04-02T07:49:09.527Z,8.03
2018-04-02T07:51:43.128Z,8.24
2018-04-02T07:54:17.298Z,8.42
2018-04-02T07:56:51.407Z,8.25
2018-04-02T07:59:25.715Z,8.36
2018-04-02T08:01:59.796Z,8.43
2018-04-02T08:04:34.062Z,8.40
2018-04-02T08:07:09.005Z,8.26
2018-04-02T08:09:46.269Z,8.35
2018-04-02T08:12:19.887Z,8.47
2018-04-02T08:14:55.472Z,8.47
2018-04-02T08:17:29.025Z,8.27
2018-04-02T08:20:03.703Z,8.08
2018-04-02T08:22:39.256Z,8.08
2018-04-02T08:25:14.813Z,7.99
2018-04-02T08:27:48.860Z,8.02
2018-04-02T08:30:22.447Z,8.09
2018-04-02T08:32:56.857Z,8.18
2018-04-02T08:35:31.076Z,8.17
2018-04-02T08:38:04.754Z,8.38
2018-04-02T08:40:38.990Z,8.33
2018-04-02T08:43:15.906Z,8.36
2018-04-02T08:45:50.256Z,8.53
2018-04-02T08:48:23.684Z,8.86
2018-04-02T08:50:57.537Z,9.30
2018-04-02T08:53:31.697Z,9.38
2018-04-02T08:56:05.256Z,9.38
2018-04-02T08:58:40.640Z,9.41
2018-04-02T09:01:14.725Z,9.23
2018-04-02T09:03:49.812Z,9.14
2018-04-02T09:06:24.928Z,9.38
2018-04-02T09:09:02.501Z,9.49
2018-04-02T09:11:35.904Z,9.89
2018-04-02T09:14:09.580Z,10.33
2018-04-02T09:16:43.892Z,10.80
2018-04-02T09:19:21.659Z,10.80
2018-04-02T09:21:56.422Z,10.51
2018-04-02T09:24:30.483Z,10.36
2018-04-02T09:27:05.153Z,10.14
2018-04-02T09:29:40.469Z,10.32
2018-04-02T09:32:15.066Z,10.58
2018-04-02T09:34:56.985Z,10.22
2018-04-02T09:37:31.942Z,9.89
2018-04-02T09:40:15.284Z,9.65
2018-04-02T09:42:49.442Z,9.68
2018-04-02T09:45:23.044Z,9.98
2018-04-02T09:47:56.970Z,10.26
2018-04-02T09:50:30.701Z,10.40
2018-04-02T09:53:05.624Z,10.30
2018-04-02T09:55:39.400Z,10.92
2018-04-02T09:58:14.000Z,11.29
2018-04-02T10:00:56.540Z,11.61
2018-04-02T10:03:34.894Z,11.62
2018-04-02T10:06:09.212Z,11.80
2018-04-02T10:08:44.604Z,12.16
2018-04-02T10:11:18.837Z,12.22
2018-04-02T10:13:55.528Z,12.28
2018-04-02T10:16:33.971Z,11.81
2018-04-02T10:19:11.071Z,12.05
2018-04-02T10:21:49.416Z,12.32
2018-04-02T10:24:23.693Z,12.48
2018-04-02T10:26:57.816Z,12.17
2018-04-02T10:29:32.708Z,12.09
2018-04-02T10:32:06.714Z,12.14
2018-04-02T10:34:40.971Z,11.98
2018-04-02T10:37:14.952Z,12.01
2018-04-02T10:39:48.842Z,12.18
2018-04-02T10:42:28.109Z,12.45
2018-04-02T10:45:07.813Z,12.88
2018-04-02T10:47:51.912Z,12.97
2018-04-02T10:50:25.853Z,12.89
2018-04-02T10:53:04.965Z,12.82
2018-04-02T10:55:40.097Z,12.65
2018-04-02T10:58:14.661Z,12.47
2018-04-02T11:00:48.675Z,12.53
2018-04-02T11:03:22.077Z,12.71
2018-04-02T11:05:57.540Z,12.88
2018-04-02T11:08:33.399Z,12.43
2018-04-02T11:11:08.299Z,12.09
2018-04-02T11:13:41.881Z,12.06
2018-04-02T11:16:17.874Z,12.05
2018-04-02T11:18:51.436Z,11.97
2018-04-02T11:21:27.244Z,11.81
2018-04-02T11:24:02.075Z,12.04
2018-04-02T11:26:36.497Z,12.15
2018-04-02T11:29:14.915Z,12.02
2018-04-02T11:31:49.726Z,12.10
2018-04-02T11:34:27.544Z,12.23
2018-04-02T11:37:01.526Z,12.14
2018-04-02T11:39:35.027Z,11.83
2018-04-02T11:44:41.475Z,11.89
2018-04-02T11:47:30.622Z,11.76
2018-04-02T11:50:10.561Z,12.01
2018-04-02T11:52:44.854Z,12.41
2018-04-02T11:55:19.201Z,12.69
2018-04-02T11:57:53.017Z,13.13
2018-04-02T12:00:26.659Z,13.48
2018-04-02T12:03:05.096Z,13.89
2018-04-02T12:05:38.754Z,14.14
2018-04-02T12:08:17.518Z,13.96
2018-04-02T12:10:52.411Z,13.91
2018-04-02T12:13:26.973Z,13.46
2018-04-02T12:16:00.937Z,13.03
2018-04-02T12:18:41.267Z,12.67
2018-04-02T12:21:21.097Z,12.91
2018-04-02T12:23:56.154Z,13.02
2018-04-02T12:26:32.509Z,12.87
2018-04-02T12:29:06.992Z,12.91
2018-04-02T12:34:32.206Z,12.39
2018-04-02T12:37:13.289Z,12.24
2018-04-02T12:39:55.972Z,12.09
2018-04-02T12:42:30.847Z,11.98
2018-04-02T12:45:09.831Z,12.06
2018-04-02T12:47:44.220Z,12.20
2018-04-02T12:50:17.859Z,12.40
2018-04-02T12:52:51.435Z,12.67
2018-04-02T12:55:26.589Z,12.92
2018-04-02T12:58:01.078Z,12.80
2018-04-02T13:00:36.340Z,12.91
2018-04-02T13:03:12.848Z,12.78
2018-04-02T13:05:47.708Z,12.48
2018-04-02T13:08:23.527Z,12.72
2018-04-02T13:10:57.290Z,12.69
2018-04-02T13:13:38.241Z,12.77
2018-04-02T13:16:17.144Z,13.01
2018-04-02T13:18:53.369Z,13.19
2018-04-02T13:21:27.593Z,13.26
2018-04-02T13:24:02.389Z,13.37
2018-04-02T13:26:44.296Z,13.62
2018-04-02T13:29:20.594Z,13.66
2018-04-02T13:31:58.732Z,12.96
2018-04-02T13:34:34.366Z,12.80
2018-04-02T13:37:15.223Z,12.69
2018-04-02T13:39:49.649Z,12.81
2018-04-02T13:42:25.393Z,12.99
2018-04-02T13:44:59.843Z,12.94
2018-04-02T13:47:35.624Z,12.66
2018-04-02T13:50:09.858Z,12.63
2018-04-02T13:52:46.271Z,12.78
2018-04-02T13:55:20.797Z,12.78
2018-04-02T13:57:55.118Z,12.77
2018-04-02T14:00:28.893Z,12.74
2018-04-02T14:03:04.937Z,12.88
2018-04-02T14:05:40.740Z,13.07
2018-04-02T14:08:15.556Z,13.07
2018-04-02T14:10:50.425Z,13.19
2018-04-02T14:13:26.653Z,13.24
2018-04-02T14:16:06.311Z,13.35
2018-04-02T14:18:42.986Z,13.02
2018-04-02T14:21:18.088Z,13.06
2018-04-02T14:26:45.288Z,13.22
2018-04-02T14:29:24.313Z,13.37
2018-04-02T14:32:12.919Z,13.20
2018-04-02T14:36:38.428Z,13.12
2018-04-02T14:39:17.778Z,13.04
2018-04-02T14:41:55.134Z,13.22
2018-04-02T14:44:49.577Z,13.29
2018-04-02T14:47:32.325Z,13.24
2018-04-02T14:50:09.860Z,13.23
2018-04-02T14:52:47.785Z,13.09
2018-04-02T14:55:37.223Z,13.18
2018-04-02T14:58:13.535Z,13.11
2018-04-02T15:03:53.408Z,13.25
2018-04-02T15:06:31.604Z,13.12
2018-04-02T15:09:07.245Z,13.00
2018-04-02T15:11:44.736Z,12.93
2018-04-02T15:14:19.497Z,12.94
2018-04-02T15:16:54.263Z,13.00
2018-04-02T15:19:37.306Z,13.03
2018-04-02T15:22:13.826Z,13.06
2018-04-02T15:24:50.857Z,12.97
2018-04-02T15:27:31.665Z,12.89
2018-04-02T15:30:20.520Z,12.84
2018-04-02T15:33:08.627Z,12.71
2018-04-02T15:35:48.337Z,12.73
2018-04-02T15:41:35.099Z,12.67
2018-04-02T15:44:22.993Z,12.69
2018-04-02T15:47:03.716Z,12.72
2018-04-02T15:49:43.928Z,12.68
2018-04-02T15:52:30.694Z,12.68
2018-04-02T15:55:21.942Z,12.57
2018-04-02T15:58:00.742Z,12.44
2018-04-02T16:00:37.865Z,12.39
2018-04-02T16:07:47.860Z,12.22
2018-04-02T16:10:24.955Z,12.18
2018-04-02T16:13:01.469Z,12.11
2018-04-02T16:15:37.447Z,12.03
2018-04-02T16:18:18.326Z,12.12
2018-04-02T16:20:56.050Z,12.14
2018-04-02T16:23:39.159Z,12.04
2018-04-02T16:26:19.945Z,12.10
2018-04-02T16:29:05.989Z,12.09
2018-04-02T16:31:45.966Z,12.12
2018-04-02T16:34:26.220Z,12.03
2018-04-02T16:37:18.496Z,11.90
2018-04-02T16:40:09.382Z,11.82
2018-04-02T16:42:59.103Z,11.78
2018-04-02T16:45:40.765Z,11.59
2018-04-02T16:48:24.054Z,11.52
2018-04-02T16:51:12.141Z,11.44
2018-04-02T16:53:55.096Z,11.25
2018-04-02T16:56:39.657Z,11.20
2018-04-02T16:59:23.098Z,11.15
2018-04-02T17:02:03.806Z,11.05
2018-04-02T17:04:44.102Z,10.98
2018-04-02T17:07:26.131Z,10.93
2018-04-02T17:10:25.782Z,10.81
2018-04-02T17:13:08.030Z,10.68
2018-04-02T17:15:54.166Z,10.62
2018-04-02T17:18:34.721Z,10.50
2018-04-02T17:21:20.019Z,10.44
2018-04-02T17:24:04.241Z,10.38
2018-04-02T17:26:45.066Z,10.27
2018-04-02T17:29:29.531Z,10.15
2018-04-02T17:32:11.219Z,10.13
2018-04-02T17:34:52.013Z,10.02
2018-04-02T17:37:33.230Z,9.97
2018-04-02T17:40:13.503Z,9.93
2018-04-02T17:42:53.625Z,9.94
2018-04-02T17:45:34.481Z,9.95
2018-04-02T17:48:14.376Z,9.96
2018-04-02T17:50:54.624Z,9.98
2018-04-02T17:53:34.612Z,9.94
2018-04-02T17:56:15.073Z,9.90
2018-04-02T17:58:55.309Z,9.82
2018-04-02T18:01:35.485Z,9.78
2018-04-02T18:04:16.128Z,9.72
2018-04-02T18:06:56.930Z,9.62
2018-04-02T18:09:37.089Z,9.54
2018-04-02T18:12:17.175Z,9.52
2018-04-02T18:15:01.738Z,9.48
2018-04-02T18:18:00.124Z,9.47
2018-04-02T18:20:41.953Z,9.45
2018-04-02T18:23:31.512Z,9.47
2018-04-02T18:26:12.929Z,9.37
2018-04-02T18:28:53.386Z,9.35
2018-04-02T18:31:38.372Z,9.32
2018-04-02T18:34:18.889Z,9.30
2018-04-02T18:36:59.200Z,9.24
2018-04-02T18:39:39.661Z,9.17
2018-04-02T18:42:20.579Z,9.15
2018-04-02T18:45:00.551Z,9.17
2018-04-02T18:47:41.694Z,9.10
2018-04-02T18:50:21.756Z,9.09
2018-04-02T18:53:02.170Z,8.97
2018-04-02T18:55:43.373Z,8.90
2018-04-02T18:58:24.957Z,8.86
2018-04-02T19:01:05.576Z,8.87
2018-04-02T19:03:46.190Z,8.91
2018-04-02T19:06:26.247Z,8.85
2018-04-02T19:09:07.881Z,8.82
2018-04-02T19:11:48.819Z,8.76
2018-04-02T19:14:29.100Z,8.65
2018-04-02T19:17:10.149Z,8.60
2018-04-02T19:19:52.180Z,8.51
2018-04-02T19:22:38.289Z,8.51
2018-04-02T19:25:19.938Z,8.46
2018-04-02T19:28:00.338Z,8.38
2018-04-02T19:30:42.895Z,8.32
2018-04-02T19:33:23.114Z,8.35
2018-04-02T19:36:03.852Z,8.34
2018-04-02T19:38:44.247Z,8.31
2018-04-02T19:41:32.163Z,8.28
2018-04-02T19:44:13.393Z,8.21
2018-04-02T19:46:54.230Z,8.15
2018-04-02T19:49:34.745Z,8.07
2018-04-02T19:52:16.355Z,8.10
2018-04-02T19:54:57.482Z,8.15
2018-04-02T19:57:38.931Z,8.22
2018-04-02T20:00:21.131Z,8.43
2018-04-02T20:03:01.495Z,8.57
2018-04-02T20:05:41.880Z,8.57
2018-04-02T20:08:22.575Z,8.54
2018-04-02T20:11:03.155Z,8.56
2018-04-02T20:13:44.251Z,8.59
2018-04-02T20:16:18.498Z,8.70
2018-04-02T20:18:53.514Z,8.76
2018-04-02T20:21:28.517Z,8.72
2018-04-02T20:24:03.376Z,8.72
2018-04-02T20:26:38.236Z,8.75
2018-04-02T20:29:13.874Z,8.74
2018-04-02T20:31:48.484Z,8.77
2018-04-02T20:34:23.279Z,8.77
2018-04-02T20:36:58.718Z,8.84
2018-04-02T20:39:35.389Z,8.85
2018-04-02T20:42:09.909Z,8.96
2018-04-02T20:44:44.622Z,9.06
2018-04-02T20:47:18.905Z,9.22
2018-04-02T20:49:53.054Z,9.29
2018-04-02T20:52:29.581Z,9.37
2018-04-02T20:55:05.477Z,9.40
2018-04-02T20:57:40.251Z,9.39
2018-04-02T21:00:14.944Z,9.34
2018-04-02T21:02:51.066Z,9.37
2018-04-02T21:05:26.425Z,9.44
2018-04-02T21:08:01.022Z,9.43
2018-04-02T21:10:35.065Z,9.38
2018-04-02T21:13:09.988Z,9.44
2018-04-02T21:15:44.470Z,9.49
2018-04-02T21:18:18.770Z,9.56
2018-04-02T21:20:53.957Z,9.54
2018-04-02T21:23:28.759Z,9.57
2018-04-02T21:26:03.318Z,9.51
2018-04-02T21:28:38.320Z,9.56
2018-04-02T21:31:13.570Z,9.40
2018-04-02T21:33:48.199Z,9.46
2018-04-02T21:36:23.074Z,9.59
2018-04-02T21:38:57.398Z,9.61
2018-04-02T21:41:32.401Z,9.61
2018-04-02T21:44:07.391Z,9.69
2018-04-02T21:46:42.042Z,9.86
2018-04-02T21:49:16.546Z,9.96
2018-04-02T21:51:51.617Z,10.01
2018-04-02T21:54:26.554Z,10.03
2018-04-02T21:57:03.887Z,10.07
2018-04-02T21:59:39.048Z,10.05
2018-04-02T22:02:14.556Z,10.04
2018-04-02T22:04:49.170Z,10.06
2018-04-02T22:07:24.111Z,10.07
2018-04-02T22:09:59.740Z,10.08
2018-04-02T22:12:42.877Z,10.12
2018-04-02T22:15:23.535Z,10.13
2018-04-02T22:17:58.981Z,10.16
2018-04-02T22:20:37.119Z,10.15
2018-04-02T22:23:16.757Z,10.04
2018-04-02T22:25:51.129Z,9.90
2018-04-02T22:28:25.908Z,9.74
2018-04-02T22:31:04.214Z,9.73
2018-04-02T22:33:41.038Z,9.61
2018-04-02T22:36:16.146Z,9.64
2018-04-02T22:38:50.987Z,9.66
2018-04-02T22:41:25.873Z,9.71
2018-04-02T22:44:02.702Z,9.72
2018-04-02T22:46:37.466Z,9.58
2018-04-02T22:49:12.002Z,9.67
2018-04-02T22:51:46.770Z,9.71
2018-04-02T22:54:22.785Z,9.78
2018-04-02T22:56:57.281Z,9.92
2018-04-02T22:59:31.943Z,10.00
2018-04-02T23:02:08.132Z,10.03
2018-04-02T23:04:43.580Z,10.02
2018-04-02T23:07:20.383Z,9.97
2018-04-02T23:09:56.215Z,9.94
2018-04-02T23:12:31.545Z,10.01
2018-04-02T23:15:07.520Z,9.99
2018-04-02T23:17:42.700Z,10.02
2018-04-02T23:20:17.530Z,10.06
2018-04-02T23:22:55.510Z,10.04
2018-04-02T23:25:30.269Z,10.13
2018-04-02T23:28:05.424Z,10.13
2018-04-02T23:30:40.509Z,10.15
2018-04-02T23:33:15.777Z,10.05
2018-04-02T23:35:50.606Z,9.94
2018-04-02T23:38:26.780Z,9.88
2018-04-02T23:41:01.545Z,9.95
2018-04-02T23:43:37.756Z,9.88
2018-04-02T23:46:12.209Z,9.92
2018-04-02T23:48:47.516Z,9.95
2018-04-02T23:51:22.162Z,9.89
2018-04-02T23:53:56.765Z,9.91
2018-04-02T23:56:32.362Z,9.91
2018-04-02T23:59:07.410Z,9.83
